createdAt,value
2022-08-05T00:00:19.068Z,29.86
2022-08-05T00:02:51.042Z,29.85
2022-08-05T00:06:01.506Z,29.76
2022-08-05T00:08:32.933Z,29.71
2022-08-05T00:11:00.812Z,29.65
2022-08-05T00:13:39.592Z,29.60
2022-08-05T00:16:12.543Z,29.56
2022-08-05T00:18:44.479Z,29.53
2022-08-05T00:21:14.542Z,29.49
2022-08-05T00:23:46.778Z,29.46
2022-08-05T00:26:22.021Z,29.43
2022-08-05T00:28:50.767Z,29.40
2022-08-05T00:31:41.473Z,29.33
2022-08-05T00:34:56.127Z,29.27
2022-08-05T00:37:10.959Z,29.21
2022-08-05T00:39:57.192Z,29.17
2022-08-05T00:42:37.435Z,29.15
2022-08-05T00:45:08.560Z,29.16
2022-08-05T00:47:56.322Z,29.13
2022-08-05T00:50:25.780Z,29.12
2022-08-05T00:52:54.986Z,29.11
2022-08-05T00:55:42.103Z,29.09
2022-08-05T00:58:16.894Z,29.10
2022-08-05T01:00:47.708Z,29.07
2022-08-05T01:03:23.223Z,29.01
2022-08-05T01:05:51.933Z,28.94
2022-08-05T01:08:40.112Z,28.92
2022-08-05T01:11:36.765Z,28.87
2022-08-05T01:14:56.851Z,28.82
2022-08-05T01:17:53.635Z,28.77
2022-08-05T01:20:37.524Z,28.73
2022-08-05T01:23:34.609Z,28.69
2022-08-05T01:26:40.531Z,28.65
2022-08-05T01:29:49.992Z,28.61
2022-08-05T01:32:23.399Z,28.60
2022-08-05T01:35:01.283Z,28.58
2022-08-05T01:37:44.417Z,28.56
2022-08-05T01:40:13.337Z,28.53
2022-08-05T01:42:47.331Z,28.49
2022-08-05T01:45:17.121Z,28.46
2022-08-05T01:47:46.745Z,28.43
2022-08-05T01:50:28.574Z,28.39
2022-08-05T01:53:02.415Z,28.35
2022-08-05T01:55:36.008Z,28.32
2022-08-05T01:58:12.356Z,28.29
2022-08-05T02:00:46.551Z,28.26
2022-08-05T02:03:48.189Z,28.20
2022-08-05T02:06:33.623Z,28.20
2022-08-05T02:09:04.658Z,28.20
2022-08-05T02:12:10.430Z,28.19
2022-08-05T02:14:48.145Z,28.16
2022-08-05T02:18:31.263Z,28.12
2022-08-05T02:20:28.419Z,28.09
2022-08-05T02:23:00.628Z,28.07
2022-08-05T02:25:49.958Z,28.07
2022-08-05T02:28:29.337Z,28.07
2022-08-05T02:31:02.844Z,28.05
2022-08-05T02:33:38.909Z,28.04
2022-08-05T02:36:13.635Z,28.05
2022-08-05T02:38:53.201Z,28.04
2022-08-05T02:41:28.958Z,28.04
2022-08-05T02:44:13.353Z,28.00
2022-08-05T02:46:43.883Z,27.96
2022-08-05T02:49:27.716Z,27.92
2022-08-05T02:52:08.815Z,27.89
2022-08-05T02:54:41.186Z,27.86
2022-08-05T02:58:12.050Z,27.86
2022-08-05T03:00:00.569Z,27.87
2022-08-05T03:02:40.480Z,27.88
2022-08-05T03:05:12.076Z,27.88
2022-08-05T03:08:07.436Z,27.88
2022-08-05T03:10:29.209Z,27.86
2022-08-05T03:15:23.275Z,27.76
2022-08-05T03:17:57.624Z,27.68
2022-08-05T03:20:25.142Z,27.64
2022-08-05T03:22:53.364Z,27.60
2022-08-05T03:25:33.587Z,27.59
2022-08-05T03:28:14.105Z,27.58
2022-08-05T03:30:42.277Z,27.60
2022-08-05T03:33:09.857Z,27.58
2022-08-05T03:35:40.805Z,27.60
2022-08-05T03:38:11.910Z,27.60
2022-08-05T03:40:45.332Z,27.57
2022-08-05T03:43:58.893Z,27.57
2022-08-05T03:46:03.530Z,27.54
2022-08-05T03:48:35.236Z,27.53
2022-08-05T03:52:38.779Z,27.51
2022-08-05T03:55:34.664Z,27.49
2022-08-05T03:57:29.053Z,27.48
2022-08-05T04:00:16.006Z,27.48
2022-08-05T04:02:57.750Z,27.46
2022-08-05T04:05:34.561Z,27.44
2022-08-05T04:08:05.856Z,27.44
2022-08-05T04:10:45.398Z,27.42
2022-08-05T04:13:13.043Z,27.41
2022-08-05T04:16:03.319Z,27.39
2022-08-05T04:18:27.653Z,27.36
2022-08-05T04:20:57.015Z,27.34
2022-08-05T04:24:01.108Z,27.34
2022-08-05T04:26:17.340Z,27.29
2022-08-05T04:28:50.786Z,27.26
2022-08-05T04:31:18.308Z,27.25
2022-08-05T04:34:17.594Z,27.26
2022-08-05T04:36:45.117Z,27.27
2022-08-05T04:39:18.669Z,27.24
2022-08-05T04:41:48.055Z,27.22
2022-08-05T04:44:21.222Z,27.22
2022-08-05T04:47:09.011Z,27.20
2022-08-05T04:50:02.385Z,27.20
2022-08-05T04:52:28.211Z,27.19
2022-08-05T04:54:57.466Z,27.16
2022-08-05T04:57:28.521Z,27.14
2022-08-05T04:59:58.764Z,27.12
2022-08-05T05:02:36.497Z,27.11
2022-08-05T05:05:16.744Z,27.11
2022-08-05T05:08:14.495Z,27.11
2022-08-05T05:10:56.655Z,27.12
2022-08-05T05:13:24.130Z,27.14
2022-08-05T05:15:56.157Z,27.17
2022-08-05T05:18:31.627Z,27.20
2022-08-05T05:21:01.473Z,27.23
2022-08-05T05:24:02.525Z,27.26
2022-08-05T05:26:15.492Z,27.30
2022-08-05T05:28:44.984Z,27.32
2022-08-05T05:31:12.941Z,27.33
2022-08-05T05:33:58.891Z,27.36
2022-08-05T05:36:28.682Z,27.38
2022-08-05T05:38:57.410Z,27.39
2022-08-05T05:41:24.603Z,27.43
2022-08-05T05:43:57.598Z,27.46
2022-08-05T05:46:27.155Z,27.48
2022-08-05T05:48:54.054Z,27.50
2022-08-05T05:51:27.827Z,27.54
2022-08-05T05:53:59.586Z,27.56
2022-08-05T05:56:32.470Z,27.56
2022-08-05T05:59:06.953Z,27.59
2022-08-05T06:01:41.202Z,27.60
2022-08-05T06:04:25.086Z,27.63
2022-08-05T06:06:52.118Z,27.67
2022-08-05T06:09:26.700Z,27.70
2022-08-05T06:12:06.886Z,27.72
2022-08-05T06:14:37.148Z,27.75
2022-08-05T06:17:22.372Z,27.78
2022-08-05T06:19:57.232Z,27.82
2022-08-05T06:22:34.055Z,27.84
2022-08-05T06:25:59.741Z,27.85
2022-08-05T06:28:11.370Z,27.87
2022-08-05T06:30:37.215Z,27.90
2022-08-05T06:33:04.189Z,27.92
2022-08-05T06:36:04.215Z,27.96
2022-08-05T06:38:18.197Z,27.99
2022-08-05T06:41:04.808Z,28.03
2022-08-05T06:43:59.420Z,28.08
2022-08-05T06:46:19.065Z,28.12
2022-08-05T06:48:56.379Z,28.16
2022-08-05T06:51:30.050Z,28.22
2022-08-05T06:54:03.305Z,28.27
2022-08-05T06:56:33.881Z,28.31
2022-08-05T06:59:08.354Z,28.34
2022-08-05T07:01:36.926Z,28.40
2022-08-05T07:04:04.294Z,28.43
2022-08-05T07:06:31.780Z,28.48
2022-08-05T07:09:04.061Z,28.51
2022-08-05T07:11:36.930Z,28.57
2022-08-05T07:14:29.235Z,28.60
2022-08-05T07:17:58.903Z,28.64
2022-08-05T07:22:42.530Z,28.72
2022-08-05T07:25:23.091Z,28.79
2022-08-05T07:28:05.362Z,28.85
2022-08-05T07:30:38.703Z,28.89
2022-08-05T07:33:16.479Z,28.94
2022-08-05T07:36:03.869Z,29.00
2022-08-05T07:38:43.103Z,29.09
2022-08-05T07:42:13.204Z,29.11
2022-08-05T07:44:14.229Z,29.11
2022-08-05T07:46:48.540Z,29.24
2022-08-05T07:49:18.078Z,29.25
2022-08-05T07:51:53.490Z,29.28
2022-08-05T07:54:30.884Z,29.43
2022-08-05T07:57:13.863Z,29.39
2022-08-05T07:59:49.767Z,29.47
2022-08-05T08:02:18.173Z,29.54
2022-08-05T08:04:47.779Z,29.62
2022-08-05T08:07:18.385Z,29.65
2022-08-05T08:09:52.372Z,29.64
2022-08-05T08:12:36.903Z,29.73
2022-08-05T08:15:15.804Z,29.88
2022-08-05T08:17:50.617Z,29.86
2022-08-05T08:21:00.453Z,29.88
2022-08-05T08:24:02.164Z,29.93
2022-08-05T08:26:02.655Z,29.99
2022-08-05T08:28:36.831Z,30.02
2022-08-05T08:31:15.027Z,30.11
2022-08-05T08:33:45.859Z,30.19
2022-08-05T08:36:38.474Z,30.19
2022-08-05T08:39:01.609Z,30.23
2022-08-05T08:41:52.393Z,30.30
2022-08-05T08:45:17.202Z,30.38
2022-08-05T08:47:21.676Z,30.40
2022-08-05T08:50:22.604Z,30.46
2022-08-05T08:52:55.883Z,30.60
2022-08-05T08:56:02.811Z,30.59
2022-08-05T08:58:13.018Z,30.64
2022-08-05T09:00:42.291Z,30.70
2022-08-05T09:03:16.305Z,30.78
2022-08-05T09:06:09.220Z,30.84
2022-08-05T09:08:35.027Z,30.92
2022-08-05T09:11:04.449Z,30.97
2022-08-05T09:14:01.138Z,31.06
2022-08-05T09:16:26.821Z,31.11
2022-08-05T09:18:55.507Z,31.18
2022-08-05T09:22:22.751Z,31.27
2022-08-05T09:24:10.454Z,31.34
2022-08-05T09:26:37.589Z,31.42
2022-08-05T09:29:08.859Z,31.47
2022-08-05T09:32:40.851Z,31.55
2022-08-05T09:34:23.476Z,31.63
2022-08-05T09:36:55.681Z,31.70
2022-08-05T09:39:44.708Z,31.73
2022-08-05T09:42:23.271Z,31.80
2022-08-05T09:44:57.456Z,31.89
2022-08-05T09:47:49.046Z,31.95
2022-08-05T09:50:37.805Z,32.05
2022-08-05T09:53:08.792Z,32.12
2022-08-05T09:55:57.524Z,32.17
2022-08-05T09:58:29.126Z,32.23
2022-08-05T10:01:14.965Z,32.29
2022-08-05T10:04:00.407Z,32.41
2022-08-05T10:06:28.304Z,32.49
2022-08-05T10:09:27.314Z,32.57
2022-08-05T10:12:29.967Z,32.72
2022-08-05T10:15:16.301Z,32.72
2022-08-05T10:17:47.532Z,32.81
2022-08-05T10:20:28.549Z,32.87
2022-08-05T10:22:58.396Z,32.96
2022-08-05T10:25:25.794Z,32.93
2022-08-05T10:28:13.166Z,32.99
2022-08-05T10:32:47.137Z,33.03
2022-08-05T10:33:34.312Z,33.13
2022-08-05T10:36:04.736Z,33.24
2022-08-05T10:38:35.617Z,33.33
2022-08-05T10:41:27.909Z,33.43
2022-08-05T10:44:17.215Z,33.52
2022-08-05T10:46:54.262Z,33.62
2022-08-05T10:49:33.505Z,33.65
2022-08-05T10:52:49.425Z,33.69
2022-08-05T10:55:18.495Z,33.78
2022-08-05T10:57:46.669Z,33.91
2022-08-05T11:00:23.113Z,33.96
2022-08-05T11:03:23.181Z,34.02
2022-08-05T11:06:15.032Z,34.14
2022-08-05T11:09:17.724Z,34.23
2022-08-05T11:11:53.613Z,34.27
2022-08-05T11:14:57.909Z,34.36
2022-08-05T11:17:58.917Z,34.44
2022-08-05T11:20:47.499Z,34.53
2022-08-05T11:24:05.160Z,34.61
2022-08-05T11:26:33.698Z,34.70
2022-08-05T11:29:13.991Z,34.70
2022-08-05T11:31:57.801Z,34.84
2022-08-05T11:34:51.608Z,34.92
2022-08-05T11:38:30.911Z,35.03
2022-08-05T11:41:01.772Z,35.14
2022-08-05T11:44:06.654Z,35.23
2022-08-05T11:46:58.326Z,35.29
2022-08-05T11:49:35.424Z,35.39
2022-08-05T11:52:08.743Z,35.43
2022-08-05T11:54:41.547Z,35.49
2022-08-05T11:57:25.041Z,35.52
2022-08-05T11:59:54.783Z,35.64
2022-08-05T12:02:30.701Z,35.71
2022-08-05T12:05:07.453Z,35.89
2022-08-05T12:08:08.838Z,35.87
2022-08-05T12:10:38.465Z,35.95
2022-08-05T12:13:17.224Z,35.99
2022-08-05T12:15:50.189Z,36.04
2022-08-05T12:18:19.091Z,36.09
2022-08-05T12:20:47.840Z,36.09
2022-08-05T12:23:14.906Z,36.16
2022-08-05T12:25:56.820Z,36.21
2022-08-05T12:28:38.281Z,36.23
2022-08-05T12:31:06.182Z,36.34
2022-08-05T12:33:36.383Z,36.34
2022-08-05T12:36:08.466Z,36.36
2022-08-05T12:38:41.149Z,36.46
2022-08-05T12:41:14.077Z,36.43
2022-08-05T12:43:57.362Z,36.50
2022-08-05T12:46:29.487Z,36.56
2022-08-05T12:49:14.894Z,36.57
2022-08-05T12:52:13.649Z,36.70
2022-08-05T12:54:49.791Z,36.86
2022-08-05T12:57:19.005Z,36.86
2022-08-05T13:01:58.424Z,36.94
2022-08-05T13:02:42.827Z,37.05
2022-08-05T13:05:15.104Z,36.96
2022-08-05T13:08:01.618Z,36.99
2022-08-05T13:10:33.174Z,37.15
2022-08-05T13:13:00.417Z,37.25
2022-08-05T13:15:41.607Z,37.35
2022-08-05T13:18:20.178Z,37.46
2022-08-05T13:20:49.829Z,37.52
2022-08-05T13:23:22.668Z,37.55
2022-08-05T13:25:59.636Z,37.58
2022-08-05T13:28:29.147Z,37.62
2022-08-05T13:30:59.490Z,37.67
2022-08-05T13:34:22.810Z,37.74
2022-08-05T13:36:18.495Z,37.82
2022-08-05T13:38:46.303Z,37.88
2022-08-05T13:41:19.406Z,37.95
2022-08-05T13:43:55.236Z,37.86
2022-08-05T13:46:50.630Z,37.91
2022-08-05T13:49:12.738Z,38.00
2022-08-05T13:51:46.393Z,38.03
2022-08-05T13:54:16.365Z,38.00
2022-08-05T13:56:50.713Z,38.06
2022-08-05T13:59:24.366Z,38.17
2022-08-05T14:01:58.917Z,38.28
2022-08-05T14:04:52.994Z,38.40
2022-08-05T14:07:59.720Z,38.49
2022-08-05T14:10:28.485Z,38.61
2022-08-05T14:12:59.509Z,38.63
2022-08-05T14:16:07.236Z,38.68
2022-08-05T14:18:18.670Z,38.77
2022-08-05T14:20:54.479Z,38.81
2022-08-05T14:23:25.291Z,38.90
2022-08-05T14:25:58.230Z,38.81
2022-08-05T14:28:29.461Z,38.89
2022-08-05T14:31:01.634Z,38.95
2022-08-05T14:33:56.643Z,39.01
2022-08-05T14:36:20.499Z,39.06
2022-08-05T14:38:50.117Z,39.12
2022-08-05T14:41:18.706Z,39.18
2022-08-05T14:43:58.883Z,39.21
2022-08-05T14:46:30.604Z,39.25
2022-08-05T14:49:06.734Z,39.20
2022-08-05T14:51:42.501Z,39.16
2022-08-05T14:54:27.747Z,39.16
2022-08-05T14:56:58.514Z,39.04
2022-08-05T14:59:29.777Z,38.97
2022-08-05T15:02:14.845Z,38.94
2022-08-05T15:04:43.824Z,38.84
2022-08-05T15:07:12.252Z,38.81
2022-08-05T15:10:01.545Z,38.81
2022-08-05T15:12:41.093Z,38.78
2022-08-05T15:15:17.425Z,38.72
2022-08-05T15:18:05.619Z,38.71
2022-08-05T15:20:35.897Z,38.61
2022-08-05T15:23:08.845Z,38.44
2022-08-05T15:25:50.859Z,38.37
2022-08-05T15:28:20.190Z,38.19
2022-08-05T15:30:54.010Z,38.16
2022-08-05T15:33:53.762Z,38.09
2022-08-05T15:36:11.563Z,38.02
2022-08-05T15:38:46.458Z,38.01
2022-08-05T15:41:22.800Z,37.94
2022-08-05T15:43:54.510Z,37.94
2022-08-05T15:46:24.318Z,37.89
2022-08-05T15:49:00.557Z,37.86
2022-08-05T15:52:10.052Z,37.88
2022-08-05T15:54:17.629Z,37.87
2022-08-05T15:56:44.626Z,37.81
2022-08-05T15:59:21.884Z,37.82
2022-08-05T16:01:53.744Z,37.79
2022-08-05T16:04:25.449Z,37.81
2022-08-05T16:06:55.749Z,37.62
2022-08-05T16:09:24.770Z,37.69
2022-08-05T16:11:54.004Z,37.64
2022-08-05T16:14:25.002Z,37.64
2022-08-05T16:16:52.508Z,37.58
2022-08-05T16:20:02.432Z,37.56
2022-08-05T16:22:10.665Z,37.57
2022-08-05T16:24:41.454Z,37.58
2022-08-05T16:27:18.360Z,37.55
2022-08-05T16:29:50.843Z,37.57
2022-08-05T16:32:28.296Z,37.51
2022-08-05T16:34:57.482Z,37.50
2022-08-05T16:38:02.404Z,37.50
2022-08-05T16:40:26.735Z,37.48
2022-08-05T16:42:56.823Z,37.47
2022-08-05T16:46:04.608Z,37.45
2022-08-05T16:48:10.914Z,37.42
2022-08-05T16:50:53.151Z,37.31
2022-08-05T16:53:22.909Z,37.28
2022-08-05T16:55:58.966Z,37.18
2022-08-05T16:58:26.775Z,37.11
2022-08-05T17:00:53.817Z,37.09
2022-08-05T17:03:21.972Z,37.01
2022-08-05T17:05:54.026Z,36.93
2022-08-05T17:08:36.458Z,36.89
2022-08-05T17:11:17.618Z,36.82
2022-08-05T17:13:45.829Z,36.75
2022-08-05T17:16:29.621Z,36.71
2022-08-05T17:18:57.892Z,36.61
2022-08-05T17:21:25.094Z,36.57
2022-08-05T17:24:19.689Z,36.53
2022-08-05T17:26:57.767Z,36.47
2022-08-05T17:29:33.588Z,36.44
2022-08-05T17:32:11.927Z,36.40
2022-08-05T17:34:47.665Z,36.38
2022-08-05T17:37:39.824Z,36.36
2022-08-05T17:40:12.870Z,36.31
2022-08-05T17:42:49.866Z,36.27
2022-08-05T17:45:25.113Z,36.25
2022-08-05T17:47:56.660Z,36.21
2022-08-05T17:50:30.392Z,36.18
2022-08-05T17:53:02.755Z,36.16
2022-08-05T17:55:37.617Z,36.11
2022-08-05T17:58:13.504Z,36.08
2022-08-05T18:00:47.420Z,36.02
2022-08-05T18:03:59.720Z,36.00
2022-08-05T18:06:11.925Z,35.94
2022-08-05T18:08:45.918Z,35.91
2022-08-05T18:11:23.717Z,35.89
2022-08-05T18:13:54.132Z,35.86
2022-08-05T18:16:22.458Z,35.76
2022-08-05T18:18:50.121Z,35.70
2022-08-05T18:21:21.182Z,35.65
2022-08-05T18:23:53.630Z,35.61
2022-08-05T18:26:27.467Z,35.58
2022-08-05T18:28:57.696Z,35.51
2022-08-05T18:31:24.994Z,35.47
2022-08-05T18:33:52.222Z,35.42
2022-08-05T18:36:19.884Z,35.38
2022-08-05T18:38:55.670Z,35.34
2022-08-05T18:41:58.150Z,35.27
2022-08-05T18:44:10.830Z,35.20
2022-08-05T18:46:41.192Z,35.12
2022-08-05T18:49:30.312Z,35.10
2022-08-05T18:52:16.619Z,35.06
2022-08-05T18:54:45.887Z,34.99
2022-08-05T18:57:15.380Z,34.96
2022-08-05T19:00:03.266Z,34.91
2022-08-05T19:02:30.060Z,34.87
2022-08-05T19:06:06.388Z,34.82
2022-08-05T19:07:50.254Z,34.74
2022-08-05T19:10:26.652Z,34.70
2022-08-05T19:12:57.167Z,34.67
2022-08-05T19:15:56.607Z,34.61
2022-08-05T19:18:22.365Z,34.60
2022-08-05T19:20:52.417Z,34.59
2022-08-05T19:24:04.971Z,34.55
2022-08-05T19:26:08.556Z,34.51
2022-08-05T19:28:42.318Z,34.49
2022-08-05T19:31:12.988Z,34.41
2022-08-05T19:33:53.086Z,34.41
2022-08-05T19:36:26.790Z,34.36
2022-08-05T19:39:00.616Z,34.32
2022-08-05T19:42:03.373Z,34.27
2022-08-05T19:44:18.956Z,34.22
2022-08-05T19:46:50.168Z,34.20
2022-08-05T19:49:17.979Z,34.16
2022-08-05T19:52:09.021Z,34.10
2022-08-05T19:54:34.989Z,34.04
2022-08-05T19:57:06.649Z,34.00
2022-08-05T19:59:55.247Z,33.96
2022-08-05T20:02:27.538Z,33.94
2022-08-05T20:04:58.597Z,33.89
2022-08-05T20:07:46.332Z,33.87
2022-08-05T20:10:17.124Z,33.82
2022-08-05T20:12:49.115Z,33.78
2022-08-05T20:15:48.589Z,33.75
2022-08-05T20:18:10.556Z,33.69
2022-08-05T20:20:56.009Z,33.61
2022-08-05T20:23:39.602Z,33.59
2022-08-05T20:26:16.057Z,33.52
2022-08-05T20:28:48.809Z,33.46
2022-08-05T20:31:17.584Z,33.42
2022-08-05T20:33:49.228Z,33.36
2022-08-05T20:36:18.012Z,33.34
2022-08-05T20:38:54.469Z,33.33
2022-08-05T20:41:44.406Z,33.28
2022-08-05T20:44:18.413Z,33.23
2022-08-05T20:46:57.935Z,33.19
2022-08-05T20:49:25.968Z,33.16
2022-08-05T20:51:54.618Z,33.10
2022-08-05T20:54:25.234Z,33.10
2022-08-05T20:56:53.313Z,33.00
2022-08-05T20:59:26.511Z,32.97
2022-08-05T21:01:57.376Z,32.96
2022-08-05T21:04:26.893Z,32.93
2022-08-05T21:06:55.051Z,32.91
2022-08-05T21:09:22.938Z,32.89
2022-08-05T21:12:09.747Z,32.84
2022-08-05T21:14:39.675Z,32.76
2022-08-05T21:17:06.920Z,32.73
2022-08-05T21:19:46.517Z,32.72
2022-08-05T21:22:17.675Z,32.66
2022-08-05T21:24:45.801Z,32.64
2022-08-05T21:27:16.712Z,32.61
2022-08-05T21:29:48.509Z,32.61
2022-08-05T21:32:20.150Z,32.62
2022-08-05T21:35:06.900Z,32.64
2022-08-05T21:37:34.996Z,32.56
2022-08-05T21:40:13.619Z,32.51
2022-08-05T21:42:45.298Z,32.48
2022-08-05T21:45:24.517Z,32.45
2022-08-05T21:47:56.628Z,32.36
2022-08-05T21:50:27.699Z,32.31
2022-08-05T21:53:04.295Z,32.30
2022-08-05T21:56:01.175Z,32.27
2022-08-05T21:58:24.959Z,32.24
2022-08-05T22:00:58.959Z,32.23
2022-08-05T22:03:48.452Z,32.19
2022-08-05T22:06:12.985Z,32.13
2022-08-05T22:08:42.740Z,32.14
2022-08-05T22:11:15.484Z,32.13
2022-08-05T22:14:31.257Z,32.09
2022-08-05T22:16:51.861Z,32.03
2022-08-05T22:19:57.431Z,32.01
2022-08-05T22:22:05.609Z,32.00
2022-08-05T22:24:52.055Z,32.01
2022-08-05T22:28:10.181Z,31.98
2022-08-05T22:30:25.000Z,31.93
2022-08-05T22:33:00.198Z,31.94
2022-08-05T22:35:31.219Z,31.89
2022-08-05T22:38:14.309Z,31.89
2022-08-05T22:40:42.323Z,31.90
2022-08-05T22:43:36.713Z,31.82
2022-08-05T22:46:13.305Z,31.69
2022-08-05T22:48:42.091Z,31.69
2022-08-05T22:51:15.976Z,31.65
2022-08-05T22:53:51.111Z,31.59
2022-08-05T22:56:30.001Z,31.59
2022-08-05T22:59:02.753Z,31.57
2022-08-05T23:02:05.227Z,31.53
2022-08-05T23:04:18.015Z,31.45
2022-08-05T23:06:44.965Z,31.39
2022-08-05T23:09:27.634Z,31.39
2022-08-05T23:12:01.963Z,31.28
2022-08-05T23:14:31.740Z,31.16
2022-08-05T23:17:24.180Z,31.15
2022-08-05T23:20:01.114Z,31.17
2022-08-05T23:22:30.846Z,31.18
2022-08-05T23:24:58.141Z,31.20
2022-08-05T23:27:28.721Z,31.20
2022-08-05T23:30:00.855Z,31.16
2022-08-05T23:32:28.352Z,31.12
2022-08-05T23:34:56.558Z,31.11
2022-08-05T23:37:23.726Z,31.11
2022-08-05T23:39:54.920Z,31.09
2022-08-05T23:42:29.061Z,31.09
2022-08-05T23:44:57.109Z,31.09
2022-08-05T23:47:25.300Z,31.08
2022-08-05T23:49:55.572Z,31.06
2022-08-05T23:52:36.034Z,31.03
2022-08-05T23:55:09.825Z,31.02
2022-08-05T23:57:38.198Z,30.99
